Terminal Aerodrome Forecast
Issued by NWS

Home | Current Version | Previous Version | Text Only | Print | Product List | Glossary On
Versions: 1 2 3 4 5 6 7 8 9 10 11 12 13 14 15 16 17 18 19 20 21 22 23 24 25 26
219
FTUS43 KAPX 151531 AAB
TAFMBL
TAF AMD
KMBL 151531Z 1516/1612 29011KT 6SM -SHSN BKN026
      TEMPO 1516/1518 3SM -SHSN BKN025
     FM151800 29012G21KT P6SM VCSH OVC025
     FM160300 29008KT P6SM VCSH BKN030
     FM160600 30006KT P6SM BKN035=

USA.gov is the U.S. government's official web portal to all federal, state and local government web resources and services.